sensor_id;sensor_type;location;lat;lon;timestamp;P1;durP1;ratioP1;P2;durP2;ratioP2
58685;SDS011;44465;53.206;-6.106;2023-01-19T00:00:16;1.20;;;1.15;;
58685;SDS011;44465;53.206;-6.106;2023-01-19T00:02:42;0.70;;;0.70;;
58685;SDS011;44465;53.206;-6.106;2023-01-19T00:05:11;2.38;;;0.95;;
58685;SDS011;44465;53.206;-6.106;2023-01-19T00:07:38;1.93;;;1.10;;
58685;SDS011;44465;53.206;-6.106;2023-01-19T00:10:04;1.35;;;0.85;;
58685;SDS011;44465;53.206;-6.106;2023-01-19T00:12:30;1.55;;;1.10;;
58685;SDS011;44465;53.206;-6.106;2023-01-19T00:14:55;1.35;;;1.25;;
58685;SDS011;44465;53.206;-6.106;2023-01-19T00:17:21;1.20;;;1.02;;
58685;SDS011;44465;53.206;-6.106;2023-01-19T00:19:47;1.20;;;1.05;;
58685;SDS011;44465;53.206;-6.106;2023-01-19T00:22:12;1.13;;;1.02;;
58685;SDS011;44465;53.206;-6.106;2023-01-19T00:24:38;1.73;;;1.30;;
58685;SDS011;44465;53.206;-6.106;2023-01-19T00:27:03;1.17;;;0.90;;
58685;SDS011;44465;53.206;-6.106;2023-01-19T00:29:29;1.80;;;0.93;;
58685;SDS011;44465;53.206;-6.106;2023-01-19T00:32:00;1.30;;;1.20;;
58685;SDS011;44465;53.206;-6.106;2023-01-19T00:34:26;1.05;;;0.93;;
58685;SDS011;44465;53.206;-6.106;2023-01-19T00:37:04;1.67;;;0.95;;
58685;SDS011;44465;53.206;-6.106;2023-01-19T00:39:31;1.65;;;1.30;;
58685;SDS011;44465;53.206;-6.106;2023-01-19T00:41:56;1.30;;;0.93;;
58685;SDS011;44465;53.206;-6.106;2023-01-19T00:44:41;1.00;;;0.90;;
58685;SDS011;44465;53.206;-6.106;2023-01-19T00:47:15;1.17;;;0.85;;
58685;SDS011;44465;53.206;-6.106;2023-01-19T00:49:41;1.08;;;0.80;;
58685;SDS011;44465;53.206;-6.106;2023-01-19T00:52:07;1.08;;;0.80;;
58685;SDS011;44465;53.206;-6.106;2023-01-19T00:54:32;0.80;;;0.80;;
58685;SDS011;44465;53.206;-6.106;2023-01-19T00:56:58;1.90;;;1.10;;
58685;SDS011;44465;53.206;-6.106;2023-01-19T00:59:23;0.93;;;0.90;;
58685;SDS011;44465;53.206;-6.106;2023-01-19T01:01:50;1.42;;;1.02;;
58685;SDS011;44465;53.206;-6.106;2023-01-19T01:04:15;1.13;;;0.90;;
58685;SDS011;44465;53.206;-6.106;2023-01-19T01:06:41;1.70;;;1.00;;
58685;SDS011;44465;53.206;-6.106;2023-01-19T01:09:06;1.10;;;0.88;;
58685;SDS011;44465;53.206;-6.106;2023-01-19T01:11:37;0.90;;;0.90;;
58685;SDS011;44465;53.206;-6.106;2023-01-19T01:14:06;1.33;;;0.82;;
58685;SDS011;44465;53.206;-6.106;2023-01-19T01:16:32;0.93;;;0.80;;
58685;SDS011;44465;53.206;-6.106;2023-01-19T01:18:58;2.05;;;0.88;;
58685;SDS011;44465;53.206;-6.106;2023-01-19T01:21:23;1.23;;;1.00;;
58685;SDS011;44465;53.206;-6.106;2023-01-19T01:23:49;0.60;;;0.60;;
58685;SDS011;44465;53.206;-6.106;2023-01-19T01:26:15;1.88;;;1.00;;
58685;SDS011;44465;53.206;-6.106;2023-01-19T01:28:40;0.88;;;0.80;;
58685;SDS011;44465;53.206;-6.106;2023-01-19T01:31:06;0.80;;;0.80;;
58685;SDS011;44465;53.206;-6.106;2023-01-19T01:33:31;1.02;;;0.80;;
58685;SDS011;44465;53.206;-6.106;2023-01-19T01:35:57;0.75;;;0.70;;
58685;SDS011;44465;53.206;-6.106;2023-01-19T01:38:23;1.58;;;0.95;;
58685;SDS011;44465;53.206;-6.106;2023-01-19T01:40:48;1.02;;;0.90;;
58685;SDS011;44465;53.206;-6.106;2023-01-19T01:43:15;1.15;;;1.05;;
58685;SDS011;44465;53.206;-6.106;2023-01-19T01:45:42;0.98;;;0.77;;
58685;SDS011;44465;53.206;-6.106;2023-01-19T01:48:22;1.20;;;0.85;;
58685;SDS011;44465;53.206;-6.106;2023-01-19T01:50:58;0.70;;;0.70;;
58685;SDS011;44465;53.206;-6.106;2023-01-19T01:53:43;1.00;;;0.95;;
58685;SDS011;44465;53.206;-6.106;2023-01-19T01:56:14;1.15;;;0.88;;
58685;SDS011;44465;53.206;-6.106;2023-01-19T01:58:44;0.70;;;0.70;;
58685;SDS011;44465;53.206;-6.106;2023-01-19T02:01:10;0.80;;;0.80;;
58685;SDS011;44465;53.206;-6.106;2023-01-19T02:03:54;1.05;;;1.00;;
58685;SDS011;44465;53.206;-6.106;2023-01-19T02:06:21;1.98;;;0.80;;
58685;SDS011;44465;53.206;-6.106;2023-01-19T02:08:55;0.73;;;0.73;;
58685;SDS011;44465;53.206;-6.106;2023-01-19T02:11:44;0.80;;;0.80;;
58685;SDS011;44465;53.206;-6.106;2023-01-19T02:14:29;0.75;;;0.75;;
58685;SDS011;44465;53.206;-6.106;2023-01-19T02:16:54;1.08;;;0.73;;
58685;SDS011;44465;53.206;-6.106;2023-01-19T02:19:24;0.85;;;0.70;;
58685;SDS011;44465;53.206;-6.106;2023-01-19T02:22:00;1.13;;;0.75;;
58685;SDS011;44465;53.206;-6.106;2023-01-19T02:24:33;1.10;;;0.60;;
58685;SDS011;44465;53.206;-6.106;2023-01-19T02:27:00;0.70;;;0.70;;
58685;SDS011;44465;53.206;-6.106;2023-01-19T02:29:26;1.10;;;0.98;;
58685;SDS011;44465;53.206;-6.106;2023-01-19T02:31:52;0.65;;;0.65;;
58685;SDS011;44465;53.206;-6.106;2023-01-19T02:34:20;1.05;;;0.68;;
58685;SDS011;44465;53.206;-6.106;2023-01-19T02:36:53;0.60;;;0.60;;
58685;SDS011;44465;53.206;-6.106;2023-01-19T02:39:39;0.60;;;0.60;;
58685;SDS011;44465;53.206;-6.106;2023-01-19T02:42:12;1.00;;;0.70;;
58685;SDS011;44465;53.206;-6.106;2023-01-19T02:44:44;0.73;;;0.60;;
58685;SDS011;44465;53.206;-6.106;2023-01-19T02:47:13;1.27;;;0.57;;
58685;SDS011;44465;53.206;-6.106;2023-01-19T02:49:39;0.75;;;0.75;;
58685;SDS011;44465;53.206;-6.106;2023-01-19T02:52:05;0.60;;;0.60;;
58685;SDS011;44465;53.206;-6.106;2023-01-19T02:54:48;0.85;;;0.70;;
58685;SDS011;44465;53.206;-6.106;2023-01-19T03:02:53;1.33;;;0.70;;
58685;SDS011;44465;53.206;-6.106;2023-01-19T03:05:49;0.60;;;0.60;;
58685;SDS011;44465;53.206;-6.106;2023-01-19T03:11:05;1.20;;;0.60;;
58685;SDS011;44465;53.206;-6.106;2023-01-19T03:13:50;1.08;;;0.80;;
58685;SDS011;44465;53.206;-6.106;2023-01-19T03:16:33;1.00;;;0.93;;
58685;SDS011;44465;53.206;-6.106;2023-01-19T03:19:11;0.85;;;0.77;;
58685;SDS011;44465;53.206;-6.106;2023-01-19T03:21:43;0.60;;;0.60;;
58685;SDS011;44465;53.206;-6.106;2023-01-19T03:24:12;0.82;;;0.70;;
58685;SDS011;44465;53.206;-6.106;2023-01-19T03:26:42;0.52;;;0.50;;
58685;SDS011;44465;53.206;-6.106;2023-01-19T03:29:11;0.90;;;0.60;;
58685;SDS011;44465;53.206;-6.106;2023-01-19T03:31:39;0.52;;;0.52;;
58685;SDS011;44465;53.206;-6.106;2023-01-19T03:34:08;0.88;;;0.50;;
58685;SDS011;44465;53.206;-6.106;2023-01-19T03:36:44;1.15;;;0.40;;
58685;SDS011;44465;53.206;-6.106;2023-01-19T03:39:18;0.80;;;0.50;;
58685;SDS011;44465;53.206;-6.106;2023-01-19T03:41:47;0.50;;;0.50;;
58685;SDS011;44465;53.206;-6.106;2023-01-19T03:44:16;1.45;;;0.63;;
58685;SDS011;44465;53.206;-6.106;2023-01-19T03:46:41;1.00;;;0.65;;
58685;SDS011;44465;53.206;-6.106;2023-01-19T03:49:08;0.50;;;0.50;;
58685;SDS011;44465;53.206;-6.106;2023-01-19T03:51:35;0.32;;;0.30;;
58685;SDS011;44465;53.206;-6.106;2023-01-19T03:54:06;0.40;;;0.40;;
58685;SDS011;44465;53.206;-6.106;2023-01-19T03:56:33;0.45;;;0.40;;
58685;SDS011;44465;53.206;-6.106;2023-01-19T03:58:59;0.50;;;0.50;;
58685;SDS011;44465;53.206;-6.106;2023-01-19T04:01:25;0.50;;;0.40;;
58685;SDS011;44465;53.206;-6.106;2023-01-19T04:03:51;0.45;;;0.43;;
58685;SDS011;44465;53.206;-6.106;2023-01-19T04:06:17;0.90;;;0.50;;
58685;SDS011;44465;53.206;-6.106;2023-01-19T04:08:44;0.30;;;0.30;;
58685;SDS011;44465;53.206;-6.106;2023-01-19T04:11:12;1.25;;;0.65;;
58685;SDS011;44465;53.206;-6.106;2023-01-19T04:13:38;0.40;;;0.40;;
58685;SDS011;44465;53.206;-6.106;2023-01-19T04:16:04;0.57;;;0.50;;
58685;SDS011;44465;53.206;-6.106;2023-01-19T04:18:32;0.80;;;0.60;;
58685;SDS011;44465;53.206;-6.106;2023-01-19T04:23:25;0.63;;;0.63;;
58685;SDS011;44465;53.206;-6.106;2023-01-19T04:25:55;0.70;;;0.60;;
58685;SDS011;44465;53.206;-6.106;2023-01-19T04:28:21;0.57;;;0.50;;
58685;SDS011;44465;53.206;-6.106;2023-01-19T04:30:48;0.40;;;0.40;;
58685;SDS011;44465;53.206;-6.106;2023-01-19T04:33:15;1.33;;;0.45;;
58685;SDS011;44465;53.206;-6.106;2023-01-19T04:35:41;0.95;;;0.50;;
58685;SDS011;44465;53.206;-6.106;2023-01-19T04:38:06;1.05;;;0.50;;
58685;SDS011;44465;53.206;-6.106;2023-01-19T04:40:32;0.50;;;0.40;;
58685;SDS011;44465;53.206;-6.106;2023-01-19T04:42:58;0.73;;;0.60;;
58685;SDS011;44465;53.206;-6.106;2023-01-19T04:45:23;0.70;;;0.70;;
58685;SDS011;44465;53.206;-6.106;2023-01-19T04:47:49;1.20;;;0.68;;
58685;SDS011;44465;53.206;-6.106;2023-01-19T04:50:15;0.30;;;0.30;;
58685;SDS011;44465;53.206;-6.106;2023-01-19T04:52:41;0.65;;;0.50;;
58685;SDS011;44465;53.206;-6.106;2023-01-19T04:55:07;0.32;;;0.32;;
58685;SDS011;44465;53.206;-6.106;2023-01-19T04:57:33;0.43;;;0.35;;
58685;SDS011;44465;53.206;-6.106;2023-01-19T05:00:00;0.75;;;0.43;;
58685;SDS011;44465;53.206;-6.106;2023-01-19T05:02:25;1.25;;;0.40;;
58685;SDS011;44465;53.206;-6.106;2023-01-19T05:04:51;0.50;;;0.38;;
58685;SDS011;44465;53.206;-6.106;2023-01-19T05:07:17;0.40;;;0.32;;
58685;SDS011;44465;53.206;-6.106;2023-01-19T05:09:43;0.75;;;0.52;;
58685;SDS011;44465;53.206;-6.106;2023-01-19T05:12:08;1.52;;;0.50;;
58685;SDS011;44465;53.206;-6.106;2023-01-19T05:14:34;0.85;;;0.55;;
58685;SDS011;44465;53.206;-6.106;2023-01-19T05:16:59;1.77;;;0.52;;
58685;SDS011;44465;53.206;-6.106;2023-01-19T05:19:27;0.43;;;0.43;;
58685;SDS011;44465;53.206;-6.106;2023-01-19T05:21:53;0.70;;;0.60;;
58685;SDS011;44465;53.206;-6.106;2023-01-19T05:24:19;0.57;;;0.40;;
58685;SDS011;44465;53.206;-6.106;2023-01-19T05:26:44;0.50;;;0.50;;
58685;SDS011;44465;53.206;-6.106;2023-01-19T05:29:10;1.45;;;0.30;;
58685;SDS011;44465;53.206;-6.106;2023-01-19T05:31:35;0.35;;;0.30;;
58685;SDS011;44465;53.206;-6.106;2023-01-19T05:34:01;0.85;;;0.40;;
58685;SDS011;44465;53.206;-6.106;2023-01-19T05:36:28;0.43;;;0.40;;
58685;SDS011;44465;53.206;-6.106;2023-01-19T05:38:53;0.50;;;0.50;;
58685;SDS011;44465;53.206;-6.106;2023-01-19T05:41:19;0.85;;;0.40;;
58685;SDS011;44465;53.206;-6.106;2023-01-19T05:43:45;1.73;;;0.45;;
58685;SDS011;44465;53.206;-6.106;2023-01-19T05:46:10;0.40;;;0.38;;
58685;SDS011;44465;53.206;-6.106;2023-01-19T05:48:36;0.82;;;0.57;;
58685;SDS011;44465;53.206;-6.106;2023-01-19T05:51:02;0.52;;;0.35;;
58685;SDS011;44465;53.206;-6.106;2023-01-19T05:53:29;0.30;;;0.30;;
58685;SDS011;44465;53.206;-6.106;2023-01-19T05:55:58;0.38;;;0.38;;
58685;SDS011;44465;53.206;-6.106;2023-01-19T05:58:29;0.43;;;0.43;;
58685;SDS011;44465;53.206;-6.106;2023-01-19T06:00:55;0.40;;;0.40;;
58685;SDS011;44465;53.206;-6.106;2023-01-19T06:03:21;0.68;;;0.50;;
58685;SDS011;44465;53.206;-6.106;2023-01-19T06:05:46;2.45;;;0.50;;
58685;SDS011;44465;53.206;-6.106;2023-01-19T06:08:12;0.50;;;0.40;;
58685;SDS011;44465;53.206;-6.106;2023-01-19T06:10:38;0.80;;;0.40;;
58685;SDS011;44465;53.206;-6.106;2023-01-19T06:13:04;1.55;;;0.57;;
58685;SDS011;44465;53.206;-6.106;2023-01-19T06:15:30;1.15;;;0.40;;
58685;SDS011;44465;53.206;-6.106;2023-01-19T06:17:55;0.30;;;0.30;;
58685;SDS011;44465;53.206;-6.106;2023-01-19T06:20:21;0.45;;;0.40;;
58685;SDS011;44465;53.206;-6.106;2023-01-19T06:22:46;0.57;;;0.43;;
58685;SDS011;44465;53.206;-6.106;2023-01-19T06:25:12;0.22;;;0.20;;
58685;SDS011;44465;53.206;-6.106;2023-01-19T06:27:41;0.40;;;0.30;;
58685;SDS011;44465;53.206;-6.106;2023-01-19T06:30:07;0.32;;;0.32;;
58685;SDS011;44465;53.206;-6.106;2023-01-19T06:32:33;1.00;;;0.50;;
58685;SDS011;44465;53.206;-6.106;2023-01-19T06:34:59;0.52;;;0.50;;
58685;SDS011;44465;53.206;-6.106;2023-01-19T06:37:26;0.32;;;0.30;;
58685;SDS011;44465;53.206;-6.106;2023-01-19T06:39:54;1.15;;;0.50;;
58685;SDS011;44465;53.206;-6.106;2023-01-19T06:42:20;0.20;;;0.20;;
58685;SDS011;44465;53.206;-6.106;2023-01-19T06:44:46;0.57;;;0.30;;
58685;SDS011;44465;53.206;-6.106;2023-01-19T06:47:12;0.95;;;0.52;;
58685;SDS011;44465;53.206;-6.106;2023-01-19T06:49:39;0.43;;;0.40;;
58685;SDS011;44465;53.206;-6.106;2023-01-19T06:52:05;0.95;;;0.40;;
58685;SDS011;44465;53.206;-6.106;2023-01-19T06:54:33;0.95;;;0.50;;
58685;SDS011;44465;53.206;-6.106;2023-01-19T06:56:59;0.32;;;0.30;;
58685;SDS011;44465;53.206;-6.106;2023-01-19T06:59:24;0.55;;;0.50;;
58685;SDS011;44465;53.206;-6.106;2023-01-19T07:01:50;0.45;;;0.40;;
58685;SDS011;44465;53.206;-6.106;2023-01-19T07:04:15;1.55;;;0.40;;
58685;SDS011;44465;53.206;-6.106;2023-01-19T07:06:41;0.77;;;0.40;;
58685;SDS011;44465;53.206;-6.106;2023-01-19T07:09:06;0.43;;;0.40;;
58685;SDS011;44465;53.206;-6.106;2023-01-19T07:11:34;0.82;;;0.63;;
58685;SDS011;44465;53.206;-6.106;2023-01-19T07:14:01;0.25;;;0.25;;
58685;SDS011;44465;53.206;-6.106;2023-01-19T07:16:28;1.48;;;0.40;;
58685;SDS011;44465;53.206;-6.106;2023-01-19T07:18:53;0.82;;;0.60;;
58685;SDS011;44465;53.206;-6.106;2023-01-19T07:21:19;1.35;;;0.50;;
58685;SDS011;44465;53.206;-6.106;2023-01-19T07:23:49;0.43;;;0.40;;
58685;SDS011;44465;53.206;-6.106;2023-01-19T07:26:15;0.50;;;0.45;;
58685;SDS011;44465;53.206;-6.106;2023-01-19T07:28:44;0.43;;;0.43;;
58685;SDS011;44465;53.206;-6.106;2023-01-19T07:31:09;0.43;;;0.40;;
58685;SDS011;44465;53.206;-6.106;2023-01-19T07:33:35;0.75;;;0.40;;
58685;SDS011;44465;53.206;-6.106;2023-01-19T07:36:00;0.63;;;0.57;;
58685;SDS011;44465;53.206;-6.106;2023-01-19T07:38:26;1.33;;;0.50;;
58685;SDS011;44465;53.206;-6.106;2023-01-19T07:40:58;0.52;;;0.30;;
58685;SDS011;44465;53.206;-6.106;2023-01-19T07:43:24;0.30;;;0.30;;
58685;SDS011;44465;53.206;-6.106;2023-01-19T07:45:50;0.65;;;0.50;;
58685;SDS011;44465;53.206;-6.106;2023-01-19T07:48:16;1.55;;;0.30;;
58685;SDS011;44465;53.206;-6.106;2023-01-19T07:50:41;1.13;;;0.65;;
58685;SDS011;44465;53.206;-6.106;2023-01-19T07:53:07;0.35;;;0.35;;
58685;SDS011;44465;53.206;-6.106;2023-01-19T07:55:33;1.90;;;0.60;;
58685;SDS011;44465;53.206;-6.106;2023-01-19T07:57:59;0.35;;;0.35;;
58685;SDS011;44465;53.206;-6.106;2023-01-19T08:00:25;0.30;;;0.30;;
58685;SDS011;44465;53.206;-6.106;2023-01-19T08:02:51;0.45;;;0.40;;
58685;SDS011;44465;53.206;-6.106;2023-01-19T08:05:18;0.65;;;0.35;;
58685;SDS011;44465;53.206;-6.106;2023-01-19T08:07:44;0.57;;;0.50;;
58685;SDS011;44465;53.206;-6.106;2023-01-19T08:10:11;0.95;;;0.60;;
58685;SDS011;44465;53.206;-6.106;2023-01-19T08:15:06;2.05;;;0.70;;
58685;SDS011;44465;53.206;-6.106;2023-01-19T08:17:36;0.38;;;0.32;;
58685;SDS011;44465;53.206;-6.106;2023-01-19T08:20:02;0.88;;;0.30;;
58685;SDS011;44465;53.206;-6.106;2023-01-19T08:22:28;1.02;;;0.50;;
58685;SDS011;44465;53.206;-6.106;2023-01-19T08:24:53;1.80;;;0.47;;
58685;SDS011;44465;53.206;-6.106;2023-01-19T08:27:19;0.70;;;0.30;;
58685;SDS011;44465;53.206;-6.106;2023-01-19T08:29:45;1.02;;;0.60;;
58685;SDS011;44465;53.206;-6.106;2023-01-19T08:32:11;0.30;;;0.30;;
58685;SDS011;44465;53.206;-6.106;2023-01-19T08:34:36;0.60;;;0.30;;
58685;SDS011;44465;53.206;-6.106;2023-01-19T08:37:02;0.45;;;0.40;;
58685;SDS011;44465;53.206;-6.106;2023-01-19T08:39:27;0.38;;;0.32;;
58685;SDS011;44465;53.206;-6.106;2023-01-19T08:41:53;0.30;;;0.25;;
58685;SDS011;44465;53.206;-6.106;2023-01-19T08:44:19;0.93;;;0.30;;
58685;SDS011;44465;53.206;-6.106;2023-01-19T08:46:44;1.65;;;0.55;;
58685;SDS011;44465;53.206;-6.106;2023-01-19T08:49:11;1.45;;;0.40;;
58685;SDS011;44465;53.206;-6.106;2023-01-19T08:51:36;0.55;;;0.40;;
58685;SDS011;44465;53.206;-6.106;2023-01-19T08:54:03;0.47;;;0.43;;
58685;SDS011;44465;53.206;-6.106;2023-01-19T08:56:29;1.67;;;0.47;;
58685;SDS011;44465;53.206;-6.106;2023-01-19T08:58:55;0.55;;;0.45;;
58685;SDS011;44465;53.206;-6.106;2023-01-19T09:01:21;0.70;;;0.50;;
58685;SDS011;44465;53.206;-6.106;2023-01-19T09:03:47;1.75;;;0.70;;
58685;SDS011;44465;53.206;-6.106;2023-01-19T09:06:14;0.40;;;0.40;;
58685;SDS011;44465;53.206;-6.106;2023-01-19T09:08:44;0.80;;;0.68;;
58685;SDS011;44465;53.206;-6.106;2023-01-19T09:11:11;0.52;;;0.50;;
58685;SDS011;44465;53.206;-6.106;2023-01-19T09:13:39;0.43;;;0.40;;
58685;SDS011;44465;53.206;-6.106;2023-01-19T09:16:06;0.63;;;0.47;;
58685;SDS011;44465;53.206;-6.106;2023-01-19T09:18:32;0.55;;;0.52;;
58685;SDS011;44465;53.206;-6.106;2023-01-19T09:20:59;0.50;;;0.50;;
58685;SDS011;44465;53.206;-6.106;2023-01-19T09:23:26;1.00;;;0.40;;
58685;SDS011;44465;53.206;-6.106;2023-01-19T09:25:55;0.98;;;0.50;;
58685;SDS011;44465;53.206;-6.106;2023-01-19T09:28:26;1.55;;;0.60;;
58685;SDS011;44465;53.206;-6.106;2023-01-19T09:30:52;0.65;;;0.50;;
58685;SDS011;44465;53.206;-6.106;2023-01-19T09:33:17;0.30;;;0.30;;
58685;SDS011;44465;53.206;-6.106;2023-01-19T09:35:44;0.93;;;0.50;;
58685;SDS011;44465;53.206;-6.106;2023-01-19T09:38:11;0.52;;;0.52;;
58685;SDS011;44465;53.206;-6.106;2023-01-19T09:46:00;1.45;;;0.50;;
58685;SDS011;44465;53.206;-6.106;2023-01-19T09:50:57;0.90;;;0.50;;
58685;SDS011;44465;53.206;-6.106;2023-01-19T09:56:17;0.35;;;0.35;;
58685;SDS011;44465;53.206;-6.106;2023-01-19T09:58:44;0.93;;;0.57;;
58685;SDS011;44465;53.206;-6.106;2023-01-19T10:04:25;0.93;;;0.60;;
58685;SDS011;44465;53.206;-6.106;2023-01-19T10:09:44;0.93;;;0.60;;
58685;SDS011;44465;53.206;-6.106;2023-01-19T10:18:24;1.08;;;0.40;;
58685;SDS011;44465;53.206;-6.106;2023-01-19T10:21:16;0.38;;;0.38;;
58685;SDS011;44465;53.206;-6.106;2023-01-19T10:26:31;0.38;;;0.38;;
58685;SDS011;44465;53.206;-6.106;2023-01-19T10:29:05;1.27;;;0.45;;
58685;SDS011;44465;53.206;-6.106;2023-01-19T10:31:33;1.55;;;0.55;;
58685;SDS011;44465;53.206;-6.106;2023-01-19T10:34:02;0.80;;;0.40;;
58685;SDS011;44465;53.206;-6.106;2023-01-19T10:36:37;0.30;;;0.30;;
58685;SDS011;44465;53.206;-6.106;2023-01-19T10:39:05;1.25;;;0.68;;
58685;SDS011;44465;53.206;-6.106;2023-01-19T10:41:40;2.08;;;0.68;;
58685;SDS011;44465;53.206;-6.106;2023-01-19T10:44:07;0.63;;;0.63;;
58685;SDS011;44465;53.206;-6.106;2023-01-19T10:46:41;0.50;;;0.47;;
58685;SDS011;44465;53.206;-6.106;2023-01-19T10:49:28;0.40;;;0.40;;
58685;SDS011;44465;53.206;-6.106;2023-01-19T10:52:00;0.73;;;0.40;;
58685;SDS011;44465;53.206;-6.106;2023-01-19T10:54:26;0.43;;;0.43;;
58685;SDS011;44465;53.206;-6.106;2023-01-19T10:57:00;0.77;;;0.70;;
58685;SDS011;44465;53.206;-6.106;2023-01-19T10:59:31;0.60;;;0.60;;
58685;SDS011;44465;53.206;-6.106;2023-01-19T11:04:52;0.45;;;0.43;;
58685;SDS011;44465;53.206;-6.106;2023-01-19T11:07:27;1.13;;;0.40;;
58685;SDS011;44465;53.206;-6.106;2023-01-19T11:12:39;0.50;;;0.50;;
58685;SDS011;44465;53.206;-6.106;2023-01-19T11:15:29;0.50;;;0.50;;
58685;SDS011;44465;53.206;-6.106;2023-01-19T11:18:00;0.60;;;0.40;;
58685;SDS011;44465;53.206;-6.106;2023-01-19T11:20:28;1.23;;;0.52;;
58685;SDS011;44465;53.206;-6.106;2023-01-19T11:25:55;0.85;;;0.65;;
58685;SDS011;44465;53.206;-6.106;2023-01-19T11:30:58;0.85;;;0.50;;
58685;SDS011;44465;53.206;-6.106;2023-01-19T11:35:52;0.93;;;0.60;;
58685;SDS011;44465;53.206;-6.106;2023-01-19T11:38:27;1.07;;;0.40;;
58685;SDS011;44465;53.206;-6.106;2023-01-19T11:40:53;0.50;;;0.50;;
58685;SDS011;44465;53.206;-6.106;2023-01-19T11:43:22;0.80;;;0.50;;
58685;SDS011;44465;53.206;-6.106;2023-01-19T11:45:49;0.30;;;0.30;;
58685;SDS011;44465;53.206;-6.106;2023-01-19T11:48:29;1.23;;;0.43;;
58685;SDS011;44465;53.206;-6.106;2023-01-19T11:51:01;0.43;;;0.40;;
58685;SDS011;44465;53.206;-6.106;2023-01-19T11:53:33;1.02;;;0.50;;
58685;SDS011;44465;53.206;-6.106;2023-01-19T11:58:37;0.43;;;0.43;;
58685;SDS011;44465;53.206;-6.106;2023-01-19T12:01:16;1.33;;;0.47;;
58685;SDS011;44465;53.206;-6.106;2023-01-19T12:03:51;1.52;;;0.40;;
58685;SDS011;44465;53.206;-6.106;2023-01-19T12:06:24;0.57;;;0.40;;
58685;SDS011;44465;53.206;-6.106;2023-01-19T12:08:56;0.50;;;0.40;;
58685;SDS011;44465;53.206;-6.106;2023-01-19T12:11:43;1.05;;;0.50;;
58685;SDS011;44465;53.206;-6.106;2023-01-19T12:14:17;0.50;;;0.50;;
58685;SDS011;44465;53.206;-6.106;2023-01-19T12:16:49;0.40;;;0.40;;
58685;SDS011;44465;53.206;-6.106;2023-01-19T12:19:18;0.88;;;0.50;;
58685;SDS011;44465;53.206;-6.106;2023-01-19T12:21:48;0.85;;;0.40;;
58685;SDS011;44465;53.206;-6.106;2023-01-19T12:26:52;0.98;;;0.50;;
58685;SDS011;44465;53.206;-6.106;2023-01-19T12:29:21;0.80;;;0.40;;
58685;SDS011;44465;53.206;-6.106;2023-01-19T12:34:45;0.93;;;0.35;;
58685;SDS011;44465;53.206;-6.106;2023-01-19T12:39:53;0.43;;;0.38;;
58685;SDS011;44465;53.206;-6.106;2023-01-19T12:42:21;1.02;;;0.50;;
58685;SDS011;44465;53.206;-6.106;2023-01-19T12:44:47;0.85;;;0.50;;
58685;SDS011;44465;53.206;-6.106;2023-01-19T12:49:43;0.40;;;0.40;;
58685;SDS011;44465;53.206;-6.106;2023-01-19T12:57:26;0.80;;;0.70;;
58685;SDS011;44465;53.206;-6.106;2023-01-19T12:59:56;0.60;;;0.32;;
58685;SDS011;44465;53.206;-6.106;2023-01-19T13:18:42;0.75;;;0.45;;
58685;SDS011;44465;53.206;-6.106;2023-01-19T13:21:09;0.70;;;0.60;;
58685;SDS011;44465;53.206;-6.106;2023-01-19T13:26:12;0.90;;;0.50;;
58685;SDS011;44465;53.206;-6.106;2023-01-19T13:28:44;0.55;;;0.30;;
58685;SDS011;44465;53.206;-6.106;2023-01-19T13:31:13;0.30;;;0.30;;
58685;SDS011;44465;53.206;-6.106;2023-01-19T13:36:21;0.50;;;0.40;;
58685;SDS011;44465;53.206;-6.106;2023-01-19T13:38:48;0.40;;;0.40;;
58685;SDS011;44465;53.206;-6.106;2023-01-19T13:41:16;0.47;;;0.40;;
58685;SDS011;44465;53.206;-6.106;2023-01-19T13:43:44;1.08;;;0.43;;
58685;SDS011;44465;53.206;-6.106;2023-01-19T13:46:11;0.60;;;0.43;;
58685;SDS011;44465;53.206;-6.106;2023-01-19T13:48:51;0.43;;;0.43;;
58685;SDS011;44465;53.206;-6.106;2023-01-19T13:51:22;0.47;;;0.47;;
58685;SDS011;44465;53.206;-6.106;2023-01-19T13:53:55;1.00;;;0.55;;
58685;SDS011;44465;53.206;-6.106;2023-01-19T13:56:22;0.50;;;0.50;;
58685;SDS011;44465;53.206;-6.106;2023-01-19T14:01:40;0.30;;;0.30;;
58685;SDS011;44465;53.206;-6.106;2023-01-19T14:04:23;0.90;;;0.50;;
58685;SDS011;44465;53.206;-6.106;2023-01-19T14:06:55;0.70;;;0.60;;
58685;SDS011;44465;53.206;-6.106;2023-01-19T14:09:24;0.82;;;0.50;;
58685;SDS011;44465;53.206;-6.106;2023-01-19T14:14:38;0.82;;;0.80;;
58685;SDS011;44465;53.206;-6.106;2023-01-19T14:17:14;0.47;;;0.40;;
58685;SDS011;44465;53.206;-6.106;2023-01-19T14:19:51;1.20;;;0.63;;
58685;SDS011;44465;53.206;-6.106;2023-01-19T14:22:19;0.47;;;0.45;;
58685;SDS011;44465;53.206;-6.106;2023-01-19T14:24:45;0.77;;;0.60;;
58685;SDS011;44465;53.206;-6.106;2023-01-19T14:27:18;0.60;;;0.47;;
58685;SDS011;44465;53.206;-6.106;2023-01-19T14:29:46;0.82;;;0.65;;
58685;SDS011;44465;53.206;-6.106;2023-01-19T14:34:47;1.65;;;0.60;;
58685;SDS011;44465;53.206;-6.106;2023-01-19T14:40:01;0.57;;;0.50;;
58685;SDS011;44465;53.206;-6.106;2023-01-19T14:45:10;1.02;;;0.63;;
58685;SDS011;44465;53.206;-6.106;2023-01-19T14:47:52;0.75;;;0.50;;
58685;SDS011;44465;53.206;-6.106;2023-01-19T14:50:25;1.42;;;0.63;;
58685;SDS011;44465;53.206;-6.106;2023-01-19T14:55:35;0.70;;;0.70;;
58685;SDS011;44465;53.206;-6.106;2023-01-19T14:58:11;0.80;;;0.75;;
58685;SDS011;44465;53.206;-6.106;2023-01-19T15:00:41;1.75;;;0.60;;
58685;SDS011;44465;53.206;-6.106;2023-01-19T15:03:08;0.98;;;0.50;;
58685;SDS011;44465;53.206;-6.106;2023-01-19T15:05:40;1.15;;;0.70;;
58685;SDS011;44465;53.206;-6.106;2023-01-19T15:08:13;1.10;;;0.77;;
58685;SDS011;44465;53.206;-6.106;2023-01-19T15:10:41;1.02;;;0.90;;
58685;SDS011;44465;53.206;-6.106;2023-01-19T15:13:09;1.33;;;0.70;;
58685;SDS011;44465;53.206;-6.106;2023-01-19T15:15:42;0.70;;;0.70;;
58685;SDS011;44465;53.206;-6.106;2023-01-19T15:18:08;1.95;;;1.05;;
58685;SDS011;44465;53.206;-6.106;2023-01-19T15:20:39;1.15;;;0.80;;
58685;SDS011;44465;53.206;-6.106;2023-01-19T15:23:05;0.88;;;0.60;;
58685;SDS011;44465;53.206;-6.106;2023-01-19T15:25:30;0.60;;;0.60;;
58685;SDS011;44465;53.206;-6.106;2023-01-19T15:27:56;1.13;;;0.95;;
58685;SDS011;44465;53.206;-6.106;2023-01-19T15:30:24;0.60;;;0.60;;
58685;SDS011;44465;53.206;-6.106;2023-01-19T15:32:57;0.77;;;0.77;;
58685;SDS011;44465;53.206;-6.106;2023-01-19T15:35:23;1.65;;;0.98;;
58685;SDS011;44465;53.206;-6.106;2023-01-19T15:37:50;1.27;;;0.85;;
58685;SDS011;44465;53.206;-6.106;2023-01-19T15:40:16;0.57;;;0.57;;
58685;SDS011;44465;53.206;-6.106;2023-01-19T15:42:43;1.08;;;0.98;;
58685;SDS011;44465;53.206;-6.106;2023-01-19T15:48:00;0.90;;;0.90;;
58685;SDS011;44465;53.206;-6.106;2023-01-19T15:50:28;0.90;;;0.90;;
58685;SDS011;44465;53.206;-6.106;2023-01-19T15:52:54;1.23;;;1.00;;
58685;SDS011;44465;53.206;-6.106;2023-01-19T15:55:20;1.63;;;0.73;;
58685;SDS011;44465;53.206;-6.106;2023-01-19T15:57:46;0.70;;;0.70;;
58685;SDS011;44465;53.206;-6.106;2023-01-19T16:00:12;0.88;;;0.70;;
58685;SDS011;44465;53.206;-6.106;2023-01-19T16:02:39;0.70;;;0.68;;
58685;SDS011;44465;53.206;-6.106;2023-01-19T16:05:05;1.40;;;0.82;;
58685;SDS011;44465;53.206;-6.106;2023-01-19T16:07:31;1.08;;;0.82;;
58685;SDS011;44465;53.206;-6.106;2023-01-19T16:09:57;1.17;;;0.90;;
58685;SDS011;44465;53.206;-6.106;2023-01-19T16:12:24;0.70;;;0.70;;
58685;SDS011;44465;53.206;-6.106;2023-01-19T16:14:49;1.00;;;0.80;;
58685;SDS011;44465;53.206;-6.106;2023-01-19T16:17:15;0.80;;;0.70;;
58685;SDS011;44465;53.206;-6.106;2023-01-19T16:19:40;0.70;;;0.70;;
58685;SDS011;44465;53.206;-6.106;2023-01-19T16:22:07;1.48;;;1.25;;
58685;SDS011;44465;53.206;-6.106;2023-01-19T16:24:34;1.75;;;1.05;;
58685;SDS011;44465;53.206;-6.106;2023-01-19T16:27:00;0.80;;;0.80;;
58685;SDS011;44465;53.206;-6.106;2023-01-19T16:29:25;1.08;;;0.98;;
58685;SDS011;44465;53.206;-6.106;2023-01-19T16:31:51;0.90;;;0.90;;